sensor_id;sensor_type;location;lat;lon;timestamp;P1;durP1;ratioP1;P2;durP2;ratioP2
12441;SDS011;6285;48.804;9.220;2023-11-21T00:01:14;9.35;;;2.80;;
12441;SDS011;6285;48.804;9.220;2023-11-21T00:03:42;5.97;;;2.42;;
12441;SDS011;6285;48.804;9.220;2023-11-21T00:06:09;5.40;;;2.40;;
12441;SDS011;6285;48.804;9.220;2023-11-21T00:08:38;9.30;;;2.58;;
12441;SDS011;6285;48.804;9.220;2023-11-21T00:11:05;7.47;;;2.67;;
12441;SDS011;6285;48.804;9.220;2023-11-21T00:13:32;6.30;;;2.80;;
12441;SDS011;6285;48.804;9.220;2023-11-21T00:16:00;7.10;;;2.33;;
12441;SDS011;6285;48.804;9.220;2023-11-21T00:18:27;6.47;;;2.38;;
12441;SDS011;6285;48.804;9.220;2023-11-21T00:20:54;5.03;;;2.33;;
12441;SDS011;6285;48.804;9.220;2023-11-21T00:23:24;4.78;;;1.85;;
12441;SDS011;6285;48.804;9.220;2023-11-21T00:25:52;6.40;;;2.00;;
12441;SDS011;6285;48.804;9.220;2023-11-21T00:28:20;6.65;;;2.13;;
12441;SDS011;6285;48.804;9.220;2023-11-21T00:30:47;7.18;;;2.10;;
12441;SDS011;6285;48.804;9.220;2023-11-21T00:33:14;3.97;;;2.03;;
12441;SDS011;6285;48.804;9.220;2023-11-21T00:35:41;4.28;;;2.10;;
12441;SDS011;6285;48.804;9.220;2023-11-21T00:38:08;4.70;;;1.85;;
12441;SDS011;6285;48.804;9.220;2023-11-21T00:40:36;5.57;;;1.90;;
12441;SDS011;6285;48.804;9.220;2023-11-21T00:43:08;6.13;;;2.10;;
12441;SDS011;6285;48.804;9.220;2023-11-21T00:45:35;7.32;;;2.35;;
12441;SDS011;6285;48.804;9.220;2023-11-21T00:48:02;7.32;;;2.25;;
12441;SDS011;6285;48.804;9.220;2023-11-21T00:50:30;5.43;;;1.75;;
12441;SDS011;6285;48.804;9.220;2023-11-21T00:52:57;4.75;;;1.90;;
12441;SDS011;6285;48.804;9.220;2023-11-21T00:55:24;4.43;;;1.90;;
12441;SDS011;6285;48.804;9.220;2023-11-21T00:57:53;5.85;;;1.90;;
12441;SDS011;6285;48.804;9.220;2023-11-21T01:00:21;5.15;;;1.80;;
12441;SDS011;6285;48.804;9.220;2023-11-21T01:02:48;5.53;;;2.10;;
12441;SDS011;6285;48.804;9.220;2023-11-21T01:05:16;2.58;;;1.52;;
12441;SDS011;6285;48.804;9.220;2023-11-21T01:07:43;6.57;;;2.40;;
12441;SDS011;6285;48.804;9.220;2023-11-21T01:10:10;5.20;;;2.00;;
12441;SDS011;6285;48.804;9.220;2023-11-21T01:12:37;6.30;;;2.10;;
12441;SDS011;6285;48.804;9.220;2023-11-21T01:15:05;6.07;;;1.90;;
12441;SDS011;6285;48.804;9.220;2023-11-21T01:17:34;5.70;;;1.90;;
12441;SDS011;6285;48.804;9.220;2023-11-21T01:20:02;7.30;;;2.20;;
12441;SDS011;6285;48.804;9.220;2023-11-21T01:22:31;4.82;;;1.90;;
12441;SDS011;6285;48.804;9.220;2023-11-21T01:24:58;3.85;;;1.70;;
12441;SDS011;6285;48.804;9.220;2023-11-21T01:27:25;5.20;;;1.70;;
12441;SDS011;6285;48.804;9.220;2023-11-21T01:29:52;4.28;;;1.88;;
12441;SDS011;6285;48.804;9.220;2023-11-21T01:32:19;6.60;;;1.92;;
12441;SDS011;6285;48.804;9.220;2023-11-21T01:34:50;5.45;;;1.85;;
12441;SDS011;6285;48.804;9.220;2023-11-21T01:37:17;6.90;;;1.80;;
12441;SDS011;6285;48.804;9.220;2023-11-21T01:39:44;2.88;;;1.60;;
12441;SDS011;6285;48.804;9.220;2023-11-21T01:42:12;4.28;;;1.52;;
12441;SDS011;6285;48.804;9.220;2023-11-21T01:44:39;3.05;;;1.73;;
12441;SDS011;6285;48.804;9.220;2023-11-21T01:47:06;3.25;;;1.80;;
12441;SDS011;6285;48.804;9.220;2023-11-21T01:49:33;4.50;;;1.80;;
12441;SDS011;6285;48.804;9.220;2023-11-21T01:52:02;4.38;;;1.77;;
12441;SDS011;6285;48.804;9.220;2023-11-21T01:54:30;3.58;;;1.58;;
12441;SDS011;6285;48.804;9.220;2023-11-21T01:56:57;3.55;;;1.60;;
12441;SDS011;6285;48.804;9.220;2023-11-21T01:59:28;4.55;;;1.55;;
12441;SDS011;6285;48.804;9.220;2023-11-21T02:01:57;6.05;;;1.40;;
12441;SDS011;6285;48.804;9.220;2023-11-21T02:04:24;2.90;;;1.48;;
12441;SDS011;6285;48.804;9.220;2023-11-21T02:06:52;3.38;;;1.40;;
12441;SDS011;6285;48.804;9.220;2023-11-21T02:09:24;4.95;;;1.38;;
12441;SDS011;6285;48.804;9.220;2023-11-21T02:11:52;3.90;;;1.50;;
12441;SDS011;6285;48.804;9.220;2023-11-21T02:14:19;5.85;;;1.55;;
12441;SDS011;6285;48.804;9.220;2023-11-21T02:16:47;4.35;;;1.50;;
12441;SDS011;6285;48.804;9.220;2023-11-21T02:19:15;2.42;;;1.60;;
12441;SDS011;6285;48.804;9.220;2023-11-21T02:21:45;4.60;;;1.30;;
12441;SDS011;6285;48.804;9.220;2023-11-21T02:24:14;2.95;;;1.20;;
12441;SDS011;6285;48.804;9.220;2023-11-21T02:26:42;3.67;;;1.30;;
12441;SDS011;6285;48.804;9.220;2023-11-21T02:29:11;3.90;;;1.23;;
12441;SDS011;6285;48.804;9.220;2023-11-21T02:31:38;2.35;;;1.40;;
12441;SDS011;6285;48.804;9.220;2023-11-21T02:34:13;5.35;;;1.20;;
12441;SDS011;6285;48.804;9.220;2023-11-21T02:36:40;3.30;;;1.45;;
12441;SDS011;6285;48.804;9.220;2023-11-21T02:39:07;4.53;;;1.60;;
12441;SDS011;6285;48.804;9.220;2023-11-21T02:41:36;1.45;;;0.80;;
12441;SDS011;6285;48.804;9.220;2023-11-21T02:44:04;2.90;;;1.20;;
12441;SDS011;6285;48.804;9.220;2023-11-21T02:46:32;3.53;;;1.45;;
12441;SDS011;6285;48.804;9.220;2023-11-21T02:48:59;4.13;;;1.30;;
12441;SDS011;6285;48.804;9.220;2023-11-21T02:51:27;3.45;;;1.25;;
12441;SDS011;6285;48.804;9.220;2023-11-21T02:53:54;2.25;;;1.23;;
12441;SDS011;6285;48.804;9.220;2023-11-21T02:56:23;4.43;;;1.30;;
12441;SDS011;6285;48.804;9.220;2023-11-21T02:58:55;3.08;;;1.10;;
12441;SDS011;6285;48.804;9.220;2023-11-21T03:01:22;3.13;;;1.20;;
12441;SDS011;6285;48.804;9.220;2023-11-21T03:03:49;2.78;;;0.98;;
12441;SDS011;6285;48.804;9.220;2023-11-21T03:06:17;1.65;;;1.10;;
12441;SDS011;6285;48.804;9.220;2023-11-21T03:08:44;3.10;;;1.10;;
12441;SDS011;6285;48.804;9.220;2023-11-21T03:11:11;2.53;;;1.20;;
12441;SDS011;6285;48.804;9.220;2023-11-21T03:13:38;3.47;;;1.30;;
12441;SDS011;6285;48.804;9.220;2023-11-21T03:16:08;2.97;;;1.02;;
12441;SDS011;6285;48.804;9.220;2023-11-21T03:18:35;1.90;;;1.05;;
12441;SDS011;6285;48.804;9.220;2023-11-21T03:21:02;2.33;;;1.48;;
12441;SDS011;6285;48.804;9.220;2023-11-21T03:23:30;2.90;;;0.90;;
12441;SDS011;6285;48.804;9.220;2023-11-21T03:25:57;2.50;;;0.90;;
12441;SDS011;6285;48.804;9.220;2023-11-21T03:28:25;4.43;;;1.33;;
12441;SDS011;6285;48.804;9.220;2023-11-21T03:30:52;3.30;;;1.20;;
12441;SDS011;6285;48.804;9.220;2023-11-21T03:33:21;2.97;;;1.10;;
12441;SDS011;6285;48.804;9.220;2023-11-21T03:35:48;2.67;;;1.10;;
12441;SDS011;6285;48.804;9.220;2023-11-21T03:38:15;3.53;;;1.20;;
12441;SDS011;6285;48.804;9.220;2023-11-21T03:40:42;4.13;;;1.20;;
12441;SDS011;6285;48.804;9.220;2023-11-21T03:43:09;2.20;;;0.98;;
12441;SDS011;6285;48.804;9.220;2023-11-21T03:45:37;1.17;;;0.82;;
12441;SDS011;6285;48.804;9.220;2023-11-21T03:48:05;2.75;;;1.38;;
12441;SDS011;6285;48.804;9.220;2023-11-21T03:50:34;2.25;;;0.90;;
12441;SDS011;6285;48.804;9.220;2023-11-21T03:53:01;1.92;;;0.85;;
12441;SDS011;6285;48.804;9.220;2023-11-21T03:55:28;3.70;;;1.00;;
12441;SDS011;6285;48.804;9.220;2023-11-21T03:57:56;2.78;;;1.27;;
12441;SDS011;6285;48.804;9.220;2023-11-21T04:00:24;2.70;;;0.90;;
12441;SDS011;6285;48.804;9.220;2023-11-21T04:02:52;2.55;;;0.90;;
12441;SDS011;6285;48.804;9.220;2023-11-21T04:05:19;2.13;;;1.00;;
12441;SDS011;6285;48.804;9.220;2023-11-21T04:07:49;2.45;;;1.08;;
12441;SDS011;6285;48.804;9.220;2023-11-21T04:10:16;2.05;;;1.02;;
12441;SDS011;6285;48.804;9.220;2023-11-21T04:12:43;1.30;;;0.90;;
12441;SDS011;6285;48.804;9.220;2023-11-21T04:15:11;1.90;;;0.90;;
12441;SDS011;6285;48.804;9.220;2023-11-21T04:17:39;2.63;;;1.00;;
12441;SDS011;6285;48.804;9.220;2023-11-21T04:20:06;3.30;;;1.08;;
12441;SDS011;6285;48.804;9.220;2023-11-21T04:22:35;3.00;;;0.82;;
12441;SDS011;6285;48.804;9.220;2023-11-21T04:25:07;2.13;;;0.90;;
12441;SDS011;6285;48.804;9.220;2023-11-21T04:27:34;3.72;;;0.93;;
12441;SDS011;6285;48.804;9.220;2023-11-21T04:30:02;1.42;;;0.90;;
12441;SDS011;6285;48.804;9.220;2023-11-21T04:32:29;2.58;;;0.88;;
12441;SDS011;6285;48.804;9.220;2023-11-21T04:34:56;2.17;;;0.95;;
12441;SDS011;6285;48.804;9.220;2023-11-21T04:37:23;3.22;;;1.17;;
12441;SDS011;6285;48.804;9.220;2023-11-21T04:39:50;2.05;;;0.88;;
12441;SDS011;6285;48.804;9.220;2023-11-21T04:42:19;2.15;;;0.98;;
12441;SDS011;6285;48.804;9.220;2023-11-21T04:44:46;1.23;;;0.90;;
12441;SDS011;6285;48.804;9.220;2023-11-21T04:47:13;3.63;;;1.20;;
12441;SDS011;6285;48.804;9.220;2023-11-21T04:49:41;1.75;;;0.90;;
12441;SDS011;6285;48.804;9.220;2023-11-21T04:52:08;3.13;;;1.13;;
12441;SDS011;6285;48.804;9.220;2023-11-21T04:54:36;1.33;;;0.85;;
12441;SDS011;6285;48.804;9.220;2023-11-21T04:57:05;2.55;;;1.10;;
12441;SDS011;6285;48.804;9.220;2023-11-21T04:59:33;2.35;;;0.90;;
12441;SDS011;6285;48.804;9.220;2023-11-21T05:02:01;1.08;;;0.82;;
12441;SDS011;6285;48.804;9.220;2023-11-21T05:04:28;1.27;;;0.80;;
12441;SDS011;6285;48.804;9.220;2023-11-21T05:06:55;1.33;;;1.00;;
12441;SDS011;6285;48.804;9.220;2023-11-21T05:09:22;3.00;;;1.00;;
12441;SDS011;6285;48.804;9.220;2023-11-21T05:11:50;2.42;;;1.00;;
12441;SDS011;6285;48.804;9.220;2023-11-21T05:14:18;1.58;;;0.70;;
12441;SDS011;6285;48.804;9.220;2023-11-21T05:16:47;2.40;;;0.90;;
12441;SDS011;6285;48.804;9.220;2023-11-21T05:19:15;3.35;;;1.00;;
12441;SDS011;6285;48.804;9.220;2023-11-21T05:21:42;3.45;;;1.00;;
12441;SDS011;6285;48.804;9.220;2023-11-21T05:24:10;2.30;;;1.10;;
12441;SDS011;6285;48.804;9.220;2023-11-21T05:26:37;3.00;;;0.90;;
12441;SDS011;6285;48.804;9.220;2023-11-21T05:29:04;3.63;;;1.17;;
12441;SDS011;6285;48.804;9.220;2023-11-21T05:31:32;3.10;;;1.02;;
12441;SDS011;6285;48.804;9.220;2023-11-21T05:34:00;2.10;;;1.02;;
12441;SDS011;6285;48.804;9.220;2023-11-21T05:36:27;4.15;;;1.17;;
12441;SDS011;6285;48.804;9.220;2023-11-21T05:38:54;2.72;;;0.80;;
12441;SDS011;6285;48.804;9.220;2023-11-21T05:41:21;1.40;;;1.08;;
12441;SDS011;6285;48.804;9.220;2023-11-21T05:43:49;1.48;;;0.90;;
12441;SDS011;6285;48.804;9.220;2023-11-21T05:46:16;2.40;;;1.00;;
12441;SDS011;6285;48.804;9.220;2023-11-21T05:48:43;1.90;;;1.00;;
12441;SDS011;6285;48.804;9.220;2023-11-21T05:51:11;3.13;;;1.00;;
12441;SDS011;6285;48.804;9.220;2023-11-21T05:53:39;2.28;;;0.95;;
12441;SDS011;6285;48.804;9.220;2023-11-21T05:56:06;1.80;;;1.10;;
12441;SDS011;6285;48.804;9.220;2023-11-21T05:58:33;2.20;;;1.15;;
12441;SDS011;6285;48.804;9.220;2023-11-21T06:01:01;2.17;;;1.05;;
12441;SDS011;6285;48.804;9.220;2023-11-21T06:03:28;1.75;;;1.00;;
12441;SDS011;6285;48.804;9.220;2023-11-21T06:05:55;2.03;;;1.05;;
12441;SDS011;6285;48.804;9.220;2023-11-21T06:08:24;2.15;;;1.40;;
12441;SDS011;6285;48.804;9.220;2023-11-21T06:10:51;3.60;;;2.17;;
12441;SDS011;6285;48.804;9.220;2023-11-21T06:13:18;2.67;;;1.20;;
12441;SDS011;6285;48.804;9.220;2023-11-21T06:15:49;3.38;;;1.55;;
12441;SDS011;6285;48.804;9.220;2023-11-21T06:18:16;2.28;;;0.93;;
12441;SDS011;6285;48.804;9.220;2023-11-21T06:20:44;3.28;;;1.10;;
12441;SDS011;6285;48.804;9.220;2023-11-21T06:23:11;2.05;;;1.05;;
12441;SDS011;6285;48.804;9.220;2023-11-21T06:25:40;2.50;;;1.02;;
12441;SDS011;6285;48.804;9.220;2023-11-21T06:28:07;2.67;;;1.23;;
12441;SDS011;6285;48.804;9.220;2023-11-21T06:30:35;2.65;;;0.95;;
12441;SDS011;6285;48.804;9.220;2023-11-21T06:33:03;1.50;;;0.95;;
12441;SDS011;6285;48.804;9.220;2023-11-21T06:35:31;1.35;;;0.82;;
12441;SDS011;6285;48.804;9.220;2023-11-21T06:37:59;1.40;;;1.30;;
12441;SDS011;6285;48.804;9.220;2023-11-21T06:40:27;2.10;;;0.90;;
12441;SDS011;6285;48.804;9.220;2023-11-21T06:42:56;1.92;;;1.00;;
12441;SDS011;6285;48.804;9.220;2023-11-21T06:45:23;2.08;;;1.00;;
12441;SDS011;6285;48.804;9.220;2023-11-21T06:47:50;2.28;;;1.00;;
12441;SDS011;6285;48.804;9.220;2023-11-21T06:50:18;1.40;;;1.00;;
12441;SDS011;6285;48.804;9.220;2023-11-21T06:52:46;1.38;;;1.10;;
12441;SDS011;6285;48.804;9.220;2023-11-21T06:55:13;1.52;;;0.90;;
12441;SDS011;6285;48.804;9.220;2023-11-21T06:57:41;4.25;;;1.25;;
12441;SDS011;6285;48.804;9.220;2023-11-21T07:00:10;3.60;;;1.38;;
12441;SDS011;6285;48.804;9.220;2023-11-21T07:02:37;1.45;;;1.20;;
12441;SDS011;6285;48.804;9.220;2023-11-21T07:05:05;2.22;;;1.20;;
12441;SDS011;6285;48.804;9.220;2023-11-21T07:07:32;2.70;;;1.20;;
12441;SDS011;6285;48.804;9.220;2023-11-21T07:10:00;3.17;;;1.23;;
12441;SDS011;6285;48.804;9.220;2023-11-21T07:12:28;3.22;;;1.70;;
12441;SDS011;6285;48.804;9.220;2023-11-21T07:14:56;1.73;;;1.25;;
12441;SDS011;6285;48.804;9.220;2023-11-21T07:17:24;4.22;;;1.30;;
12441;SDS011;6285;48.804;9.220;2023-11-21T07:19:51;2.92;;;1.15;;
12441;SDS011;6285;48.804;9.220;2023-11-21T07:22:20;1.80;;;1.13;;
12441;SDS011;6285;48.804;9.220;2023-11-21T07:24:47;1.77;;;1.15;;
12441;SDS011;6285;48.804;9.220;2023-11-21T07:27:16;2.10;;;1.38;;
12441;SDS011;6285;48.804;9.220;2023-11-21T07:29:43;4.22;;;1.40;;
12441;SDS011;6285;48.804;9.220;2023-11-21T07:32:10;1.42;;;1.02;;
12441;SDS011;6285;48.804;9.220;2023-11-21T07:34:39;3.42;;;1.52;;
12441;SDS011;6285;48.804;9.220;2023-11-21T07:37:06;2.50;;;1.70;;
12441;SDS011;6285;48.804;9.220;2023-11-21T07:39:33;2.05;;;1.70;;
12441;SDS011;6285;48.804;9.220;2023-11-21T07:42:01;3.20;;;1.55;;
12441;SDS011;6285;48.804;9.220;2023-11-21T07:44:31;2.60;;;1.70;;
12441;SDS011;6285;48.804;9.220;2023-11-21T07:46:58;2.88;;;1.40;;
12441;SDS011;6285;48.804;9.220;2023-11-21T07:49:25;5.00;;;1.58;;
12441;SDS011;6285;48.804;9.220;2023-11-21T07:51:54;3.35;;;1.40;;
12441;SDS011;6285;48.804;9.220;2023-11-21T07:54:21;2.72;;;1.90;;
12441;SDS011;6285;48.804;9.220;2023-11-21T07:56:48;4.47;;;1.65;;
12441;SDS011;6285;48.804;9.220;2023-11-21T07:59:15;2.25;;;1.70;;
12441;SDS011;6285;48.804;9.220;2023-11-21T08:01:43;2.17;;;1.42;;
12441;SDS011;6285;48.804;9.220;2023-11-21T08:04:11;3.15;;;1.40;;
12441;SDS011;6285;48.804;9.220;2023-11-21T08:06:38;3.80;;;1.77;;
12441;SDS011;6285;48.804;9.220;2023-11-21T08:09:08;2.53;;;1.10;;
12441;SDS011;6285;48.804;9.220;2023-11-21T08:11:37;2.47;;;1.20;;
12441;SDS011;6285;48.804;9.220;2023-11-21T08:14:07;2.95;;;1.42;;
12441;SDS011;6285;48.804;9.220;2023-11-21T08:16:34;2.33;;;1.38;;
12441;SDS011;6285;48.804;9.220;2023-11-21T08:19:01;4.13;;;1.48;;
12441;SDS011;6285;48.804;9.220;2023-11-21T08:21:28;2.58;;;1.48;;
12441;SDS011;6285;48.804;9.220;2023-11-21T08:23:56;3.70;;;1.55;;
12441;SDS011;6285;48.804;9.220;2023-11-21T08:26:24;3.05;;;1.25;;
12441;SDS011;6285;48.804;9.220;2023-11-21T08:28:51;1.70;;;1.30;;
12441;SDS011;6285;48.804;9.220;2023-11-21T08:31:23;3.33;;;1.40;;
12441;SDS011;6285;48.804;9.220;2023-11-21T08:33:50;3.13;;;1.40;;
12441;SDS011;6285;48.804;9.220;2023-11-21T08:36:19;3.08;;;1.60;;
12441;SDS011;6285;48.804;9.220;2023-11-21T08:38:48;2.42;;;1.30;;
12441;SDS011;6285;48.804;9.220;2023-11-21T08:41:17;2.17;;;1.67;;
12441;SDS011;6285;48.804;9.220;2023-11-21T08:43:47;2.42;;;1.58;;
12441;SDS011;6285;48.804;9.220;2023-11-21T08:46:14;2.78;;;1.52;;
12441;SDS011;6285;48.804;9.220;2023-11-21T08:48:43;1.60;;;1.10;;
12441;SDS011;6285;48.804;9.220;2023-11-21T08:51:10;1.75;;;1.13;;
12441;SDS011;6285;48.804;9.220;2023-11-21T08:53:39;3.10;;;1.67;;
12441;SDS011;6285;48.804;9.220;2023-11-21T08:56:06;2.63;;;1.17;;
12441;SDS011;6285;48.804;9.220;2023-11-21T08:58:34;2.78;;;1.05;;
12441;SDS011;6285;48.804;9.220;2023-11-21T09:01:03;3.25;;;1.60;;
12441;SDS011;6285;48.804;9.220;2023-11-21T09:03:31;3.90;;;1.52;;
12441;SDS011;6285;48.804;9.220;2023-11-21T09:05:59;3.72;;;1.63;;
12441;SDS011;6285;48.804;9.220;2023-11-21T09:08:26;4.35;;;1.60;;
12441;SDS011;6285;48.804;9.220;2023-11-21T09:10:54;1.83;;;1.20;;
12441;SDS011;6285;48.804;9.220;2023-11-21T09:13:22;2.65;;;1.38;;
12441;SDS011;6285;48.804;9.220;2023-11-21T09:15:50;2.05;;;1.48;;
12441;SDS011;6285;48.804;9.220;2023-11-21T09:18:18;2.30;;;1.30;;
12441;SDS011;6285;48.804;9.220;2023-11-21T09:20:45;2.42;;;1.27;;
12441;SDS011;6285;48.804;9.220;2023-11-21T09:23:12;3.00;;;1.50;;
12441;SDS011;6285;48.804;9.220;2023-11-21T09:25:39;3.53;;;1.23;;
12441;SDS011;6285;48.804;9.220;2023-11-21T09:28:06;1.58;;;1.30;;
12441;SDS011;6285;48.804;9.220;2023-11-21T09:30:33;1.98;;;1.35;;
12441;SDS011;6285;48.804;9.220;2023-11-21T09:33:01;2.08;;;1.17;;
12441;SDS011;6285;48.804;9.220;2023-11-21T09:35:29;1.60;;;1.40;;
12441;SDS011;6285;48.804;9.220;2023-11-21T09:37:56;2.85;;;1.45;;
12441;SDS011;6285;48.804;9.220;2023-11-21T09:40:23;2.60;;;1.63;;
12441;SDS011;6285;48.804;9.220;2023-11-21T09:42:54;2.10;;;1.48;;
12441;SDS011;6285;48.804;9.220;2023-11-21T09:45:24;3.75;;;1.45;;
12441;SDS011;6285;48.804;9.220;2023-11-21T09:47:52;3.25;;;1.50;;
12441;SDS011;6285;48.804;9.220;2023-11-21T09:50:20;2.05;;;1.40;;
12441;SDS011;6285;48.804;9.220;2023-11-21T09:52:52;1.60;;;1.13;;
12441;SDS011;6285;48.804;9.220;2023-11-21T09:55:22;3.05;;;1.40;;
12441;SDS011;6285;48.804;9.220;2023-11-21T09:57:49;2.83;;;1.30;;
12441;SDS011;6285;48.804;9.220;2023-11-21T10:00:17;5.63;;;2.00;;
12441;SDS011;6285;48.804;9.220;2023-11-21T10:02:48;5.03;;;1.83;;
12441;SDS011;6285;48.804;9.220;2023-11-21T10:05:16;6.63;;;2.30;;
12441;SDS011;6285;48.804;9.220;2023-11-21T10:07:44;3.13;;;1.80;;
12441;SDS011;6285;48.804;9.220;2023-11-21T10:10:13;1.58;;;1.25;;
12441;SDS011;6285;48.804;9.220;2023-11-21T10:12:41;1.95;;;1.23;;
12441;SDS011;6285;48.804;9.220;2023-11-21T10:15:09;2.15;;;1.30;;
12441;SDS011;6285;48.804;9.220;2023-11-21T10:17:41;2.10;;;1.50;;
12441;SDS011;6285;48.804;9.220;2023-11-21T10:20:10;4.05;;;2.08;;
12441;SDS011;6285;48.804;9.220;2023-11-21T10:22:38;1.80;;;1.48;;
12441;SDS011;6285;48.804;9.220;2023-11-21T10:25:07;4.70;;;1.92;;
12441;SDS011;6285;48.804;9.220;2023-11-21T10:27:36;3.35;;;1.85;;
12441;SDS011;6285;48.804;9.220;2023-11-21T10:30:04;1.88;;;1.67;;
12441;SDS011;6285;48.804;9.220;2023-11-21T10:32:32;2.40;;;1.65;;
12441;SDS011;6285;48.804;9.220;2023-11-21T10:34:59;1.98;;;1.45;;
12441;SDS011;6285;48.804;9.220;2023-11-21T10:37:31;2.25;;;1.40;;
12441;SDS011;6285;48.804;9.220;2023-11-21T10:39:58;3.60;;;1.65;;
12441;SDS011;6285;48.804;9.220;2023-11-21T10:42:25;4.50;;;1.63;;
12441;SDS011;6285;48.804;9.220;2023-11-21T10:44:54;1.23;;;1.10;;
12441;SDS011;6285;48.804;9.220;2023-11-21T10:47:21;2.53;;;0.80;;
12441;SDS011;6285;48.804;9.220;2023-11-21T10:49:49;1.35;;;1.00;;
12441;SDS011;6285;48.804;9.220;2023-11-21T10:52:18;1.25;;;0.93;;
12441;SDS011;6285;48.804;9.220;2023-11-21T10:54:45;0.60;;;0.60;;
12441;SDS011;6285;48.804;9.220;2023-11-21T10:57:13;0.80;;;0.60;;
12441;SDS011;6285;48.804;9.220;2023-11-21T10:59:41;0.52;;;0.50;;
12441;SDS011;6285;48.804;9.220;2023-11-21T11:02:13;0.70;;;0.50;;
12441;SDS011;6285;48.804;9.220;2023-11-21T11:04:47;2.20;;;0.68;;
12441;SDS011;6285;48.804;9.220;2023-11-21T11:07:15;0.57;;;0.57;;
12441;SDS011;6285;48.804;9.220;2023-11-21T11:09:42;0.60;;;0.52;;
12441;SDS011;6285;48.804;9.220;2023-11-21T11:12:12;0.88;;;0.60;;
12441;SDS011;6285;48.804;9.220;2023-11-21T11:14:40;1.00;;;0.60;;
12441;SDS011;6285;48.804;9.220;2023-11-21T11:17:09;1.13;;;0.73;;
12441;SDS011;6285;48.804;9.220;2023-11-21T11:19:37;1.73;;;1.25;;
12441;SDS011;6285;48.804;9.220;2023-11-21T11:22:08;2.70;;;0.90;;
12441;SDS011;6285;48.804;9.220;2023-11-21T11:24:49;0.95;;;0.90;;
12441;SDS011;6285;48.804;9.220;2023-11-21T11:27:22;1.90;;;1.00;;
12441;SDS011;6285;48.804;9.220;2023-11-21T11:29:53;2.00;;;0.90;;
12441;SDS011;6285;48.804;9.220;2023-11-21T11:32:31;1.95;;;0.80;;
12441;SDS011;6285;48.804;9.220;2023-11-21T11:35:07;1.33;;;0.68;;
12441;SDS011;6285;48.804;9.220;2023-11-21T11:37:39;2.28;;;0.85;;
12441;SDS011;6285;48.804;9.220;2023-11-21T11:40:07;1.95;;;1.20;;
12441;SDS011;6285;48.804;9.220;2023-11-21T11:42:34;1.70;;;1.00;;
12441;SDS011;6285;48.804;9.220;2023-11-21T11:45:01;0.98;;;0.80;;
12441;SDS011;6285;48.804;9.220;2023-11-21T11:47:31;1.88;;;1.20;;
12441;SDS011;6285;48.804;9.220;2023-11-21T11:50:03;2.28;;;1.30;;
12441;SDS011;6285;48.804;9.220;2023-11-21T11:52:40;1.70;;;1.08;;
12441;SDS011;6285;48.804;9.220;2023-11-21T11:55:09;1.90;;;1.55;;
12441;SDS011;6285;48.804;9.220;2023-11-21T11:57:36;2.35;;;1.20;;
12441;SDS011;6285;48.804;9.220;2023-11-21T12:00:07;1.75;;;1.27;;
12441;SDS011;6285;48.804;9.220;2023-11-21T12:02:35;1.13;;;1.00;;
12441;SDS011;6285;48.804;9.220;2023-11-21T12:05:06;1.63;;;0.90;;
12441;SDS011;6285;48.804;9.220;2023-11-21T12:07:40;1.77;;;1.35;;
12441;SDS011;6285;48.804;9.220;2023-11-21T12:10:07;1.40;;;1.30;;
12441;SDS011;6285;48.804;9.220;2023-11-21T12:12:36;1.83;;;1.30;;
12441;SDS011;6285;48.804;9.220;2023-11-21T12:15:04;1.23;;;1.08;;
12441;SDS011;6285;48.804;9.220;2023-11-21T12:17:32;1.73;;;0.98;;
12441;SDS011;6285;48.804;9.220;2023-11-21T12:20:01;1.15;;;0.90;;
12441;SDS011;6285;48.804;9.220;2023-11-21T12:22:29;2.00;;;1.10;;
12441;SDS011;6285;48.804;9.220;2023-11-21T12:24:57;1.00;;;0.90;;
12441;SDS011;6285;48.804;9.220;2023-11-21T12:27:24;1.27;;;0.90;;
12441;SDS011;6285;48.804;9.220;2023-11-21T12:29:51;1.10;;;1.00;;
12441;SDS011;6285;48.804;9.220;2023-11-21T12:32:20;1.27;;;1.17;;
12441;SDS011;6285;48.804;9.220;2023-11-21T12:34:48;0.93;;;0.90;;
12441;SDS011;6285;48.804;9.220;2023-11-21T12:37:15;1.05;;;0.90;;
12441;SDS011;6285;48.804;9.220;2023-11-21T12:39:42;1.23;;;1.13;;
12441;SDS011;6285;48.804;9.220;2023-11-21T12:42:10;1.27;;;1.10;;
12441;SDS011;6285;48.804;9.220;2023-11-21T12:44:38;1.13;;;1.02;;
12441;SDS011;6285;48.804;9.220;2023-11-21T12:47:07;2.15;;;1.20;;
12441;SDS011;6285;48.804;9.220;2023-11-21T12:49:34;1.30;;;1.20;;
12441;SDS011;6285;48.804;9.220;2023-11-21T12:52:02;1.38;;;1.27;;
12441;SDS011;6285;48.804;9.220;2023-11-21T12:54:29;2.08;;;1.50;;
12441;SDS011;6285;48.804;9.220;2023-11-21T12:56:59;1.70;;;1.40;;
12441;SDS011;6285;48.804;9.220;2023-11-21T12:59:28;2.28;;;1.50;;
12441;SDS011;6285;48.804;9.220;2023-11-21T13:01:55;1.65;;;1.55;;
12441;SDS011;6285;48.804;9.220;2023-11-21T13:04:29;1.95;;;1.75;;
12441;SDS011;6285;48.804;9.220;2023-11-21T13:07:02;2.85;;;1.50;;
12441;SDS011;6285;48.804;9.220;2023-11-21T13:09:31;2.10;;;1.90;;
12441;SDS011;6285;48.804;9.220;2023-11-21T13:12:01;2.42;;;2.17;;
12441;SDS011;6285;48.804;9.220;2023-11-21T13:14:30;2.30;;;1.80;;
12441;SDS011;6285;48.804;9.220;2023-11-21T13:16:58;3.20;;;2.10;;
12441;SDS011;6285;48.804;9.220;2023-11-21T13:19:26;3.13;;;1.83;;
12441;SDS011;6285;48.804;9.220;2023-11-21T13:21:53;2.00;;;1.80;;
12441;SDS011;6285;48.804;9.220;2023-11-21T13:24:20;3.35;;;1.98;;
12441;SDS011;6285;48.804;9.220;2023-11-21T13:26:47;3.88;;;1.98;;
12441;SDS011;6285;48.804;9.220;2023-11-21T13:29:14;2.92;;;2.13;;
12441;SDS011;6285;48.804;9.220;2023-11-21T13:31:43;1.95;;;1.67;;
12441;SDS011;6285;48.804;9.220;2023-11-21T13:34:11;1.90;;;1.55;;
12441;SDS011;6285;48.804;9.220;2023-11-21T13:36:40;3.08;;;1.77;;
12441;SDS011;6285;48.804;9.220;2023-11-21T13:39:07;2.33;;;2.00;;
12441;SDS011;6285;48.804;9.220;2023-11-21T13:41:40;2.25;;;1.60;;
12441;SDS011;6285;48.804;9.220;2023-11-21T13:44:07;2.65;;;2.22;;
12441;SDS011;6285;48.804;9.220;2023-11-21T13:46:41;2.20;;;2.00;;
12441;SDS011;6285;48.804;9.220;2023-11-21T13:49:08;1.90;;;1.67;;
12441;SDS011;6285;48.804;9.220;2023-11-21T13:51:36;3.25;;;2.10;;
12441;SDS011;6285;48.804;9.220;2023-11-21T13:54:09;2.97;;;1.60;;
12441;SDS011;6285;48.804;9.220;2023-11-21T13:56:36;3.47;;;1.83;;
12441;SDS011;6285;48.804;9.220;2023-11-21T13:59:05;3.55;;;2.10;;
12441;SDS011;6285;48.804;9.220;2023-11-21T14:01:41;3.17;;;1.67;;
12441;SDS011;6285;48.804;9.220;2023-11-21T14:04:21;3.22;;;1.73;;
12441;SDS011;6285;48.804;9.220;2023-11-21T14:07:04;1.98;;;1.75;;
12441;SDS011;6285;48.804;9.220;2023-11-21T14:09:45;6.60;;;2.10;;
12441;SDS011;6285;48.804;9.220;2023-11-21T14:12:14;5.45;;;2.05;;
12441;SDS011;6285;48.804;9.220;2023-11-21T14:14:41;5.25;;;2.05;;
12441;SDS011;6285;48.804;9.220;2023-11-21T14:17:10;3.38;;;2.15;;
12441;SDS011;6285;48.804;9.220;2023-11-21T14:19:38;2.95;;;2.00;;
12441;SDS011;6285;48.804;9.220;2023-11-21T14:22:08;2.50;;;2.22;;
12441;SDS011;6285;48.804;9.220;2023-11-21T14:24:35;2.25;;;2.05;;
12441;SDS011;6285;48.804;9.220;2023-11-21T14:27:06;2.28;;;1.77;;
12441;SDS011;6285;48.804;9.220;2023-11-21T14:29:35;4.80;;;1.85;;
12441;SDS011;6285;48.804;9.220;2023-11-21T14:32:04;4.53;;;1.58;;
12441;SDS011;6285;48.804;9.220;2023-11-21T14:34:32;2.50;;;1.90;;
12441;SDS011;6285;48.804;9.220;2023-11-21T14:37:01;2.90;;;1.70;;
12441;SDS011;6285;48.804;9.220;2023-11-21T14:39:29;3.70;;;1.85;;
12441;SDS011;6285;48.804;9.220;2023-11-21T14:42:00;1.98;;;1.70;;
12441;SDS011;6285;48.804;9.220;2023-11-21T14:44:28;2.45;;;1.88;;
12441;SDS011;6285;48.804;9.220;2023-11-21T14:47:00;2.03;;;1.60;;
12441;SDS011;6285;48.804;9.220;2023-11-21T14:49:32;3.20;;;1.73;;
12441;SDS011;6285;48.804;9.220;2023-11-21T14:52:14;1.48;;;1.35;;
12441;SDS011;6285;48.804;9.220;2023-11-21T14:54:56;1.55;;;1.45;;
12441;SDS011;6285;48.804;9.220;2023-11-21T14:57:43;3.28;;;2.05;;
12441;SDS011;6285;48.804;9.220;2023-11-21T15:00:15;2.65;;;1.35;;
12441;SDS011;6285;48.804;9.220;2023-11-21T15:03:02;5.38;;;1.30;;
12441;SDS011;6285;48.804;9.220;2023-11-21T15:05:30;1.17;;;1.08;;
12441;SDS011;6285;48.804;9.220;2023-11-21T15:08:01;1.65;;;1.55;;